Time;durP1;ratioP1;P1;durP2;ratioP2;P2;SDS_P1;SDS_P2;PMS_P1;PMS_P2;Temp;Humidity;BMP_temperature;BMP_pressure;BME280_temperature;BME280_humidity;BME280_pressure;Samples;Min_cycle;Max_cycle;Signal;HPM_P1;HPM_P2
2021/05/26 00:01:50;;;;;;;29.15;5.30;;;;;;;8.46;100.00;101389.91;5244922;28;20116;-84
2021/05/26 00:04:20;;;;;;;19.73;5.07;;;;;;;8.42;100.00;101384.00;5245985;28;20074;-84
2021/05/26 00:06:51;;;;;;;23.23;5.63;;;;;;;8.42;100.00;101393.84;5245086;28;20590;-84
2021/05/26 00:09:21;;;;;;;15.43;5.28;;;;;;;8.47;100.00;101384.41;5245000;28;20040;-84
2021/05/26 00:11:52;;;;;;;24.60;5.63;;;;;;;8.45;100.00;101385.56;5245276;28;20021;-85
2021/05/26 00:14:22;;;;;;;22.38;4.80;;;;;;;8.46;100.00;101390.75;5244672;28;20098;-83
2021/05/26 00:16:53;;;;;;;17.90;4.65;;;;;;;8.55;100.00;101384.59;5254818;28;20025;-84
2021/05/26 00:19:24;;;;;;;22.92;5.43;;;;;;;8.50;100.00;101380.63;5240168;28;20027;-84
2021/05/26 00:21:54;;;;;;;23.08;5.95;;;;;;;8.51;100.00;101387.66;5245022;28;20403;-84
2021/05/26 00:24:24;;;;;;;15.55;4.22;;;;;;;8.59;100.00;101378.97;5245067;28;20020;-84
2021/05/26 00:26:55;;;;;;;18.20;3.85;;;;;;;8.51;100.00;101379.66;5244543;28;20099;-84
2021/05/26 00:29:25;;;;;;;15.40;3.95;;;;;;;8.52;100.00;101374.16;5244469;28;20024;-84
2021/05/26 00:31:56;;;;;;;16.38;4.40;;;;;;;8.54;100.00;101371.34;5246161;28;20460;-85
2021/05/26 00:34:26;;;;;;;13.77;4.10;;;;;;;8.52;100.00;101368.81;5246262;28;20024;-85
2021/05/26 00:36:57;;;;;;;20.27;4.28;;;;;;;8.45;100.00;101365.00;5245993;28;20033;-85
2021/05/26 00:39:27;;;;;;;34.92;5.57;;;;;;;8.41;100.00;101368.09;5246901;28;20028;-86
2021/05/26 00:41:58;;;;;;;29.65;5.18;;;;;;;8.42;100.00;101365.28;5249936;28;20025;-86
2021/05/26 00:44:29;;;;;;;19.15;4.57;;;;;;;8.41;100.00;101366.28;5250405;28;20391;-85
2021/05/26 00:46:59;;;;;;;16.48;4.72;;;;;;;8.33;100.00;101363.41;5249598;28;20031;-85
2021/05/26 00:49:30;;;;;;;22.52;5.53;;;;;;;8.30;100.00;101356.53;5249872;28;20496;-86
2021/05/26 00:52:00;;;;;;;116.00;11.00;;;;;;;8.26;100.00;101359.59;5247750;28;20074;-85
2021/05/26 00:54:31;;;;;;;32.42;5.35;;;;;;;8.23;100.00;101346.50;5239087;28;20021;-86
2021/05/26 00:57:01;;;;;;;44.15;5.55;;;;;;;8.14;100.00;101336.69;5250062;28;20070;-85
2021/05/26 00:59:31;;;;;;;77.38;7.85;;;;;;;8.09;100.00;101345.09;5249967;28;20017;-85
2021/05/26 01:02:02;;;;;;;17.83;4.20;;;;;;;7.99;100.00;101339.75;5249692;28;20017;-86
2021/05/26 01:04:32;;;;;;;22.67;4.45;;;;;;;7.92;100.00;101337.75;5249703;28;20020;-85
2021/05/26 01:07:05;;;;;;;41.55;5.72;;;;;;;7.87;100.00;101345.31;5265142;28;20035;-85
2021/05/26 01:09:52;;;;;;;56.00;7.38;;;;;;;7.77;100.00;101343.47;5249618;28;20522;-85
2021/05/26 01:12:24;;;;;;;18.05;4.03;;;;;;;7.68;100.00;101336.28;5249678;28;20031;-85
2021/05/26 01:14:55;;;;;;;187.45;18.30;;;;;;;7.55;100.00;101335.66;5249057;28;20107;-85
2021/05/26 01:17:27;;;;;;;19.48;4.07;;;;;;;7.42;100.00;101338.53;5249411;28;20546;-86
2021/05/26 01:19:57;;;;;;;18.75;4.28;;;;;;;7.31;100.00;101332.47;5249434;28;20081;-85
2021/05/26 01:22:30;;;;;;;13.60;4.85;;;;;;;7.18;100.00;101335.38;5249036;28;20025;-85
2021/05/26 01:25:01;;;;;;;38.20;6.20;;;;;;;7.08;100.00;101335.31;5248047;28;20494;-86
2021/05/26 01:27:31;;;;;;;23.00;4.88;;;;;;;7.08;100.00;101324.63;5248526;28;20035;-85
2021/05/26 01:30:05;;;;;;;14.02;5.20;;;;;;;7.07;100.00;101324.75;5248765;28;20032;-85
2021/05/26 01:32:42;;;;;;;1869.95;151.60;;;;;;;7.04;100.00;101320.53;5235827;28;20021;-85
2021/05/26 01:35:15;;;;;;;42.95;7.80;;;;;;;7.06;100.00;101315.91;5247868;28;20082;-85
2021/05/26 01:37:47;;;;;;;22.42;5.50;;;;;;;6.98;100.00;101316.56;5248655;28;20237;-86
2021/05/26 01:40:19;;;;;;;30.67;6.85;;;;;;;6.95;100.00;101318.66;5248431;28;20162;-86
2021/05/26 01:42:49;;;;;;;16.98;4.28;;;;;;;6.89;100.00;101308.50;5248951;28;20032;-85
2021/05/26 01:45:20;;;;;;;15.65;3.85;;;;;;;6.89;100.00;101305.84;5248774;28;20099;-85
2021/05/26 01:47:51;;;;;;;12.77;4.45;;;;;;;6.92;100.00;101302.91;5248546;28;20023;-85
2021/05/26 01:50:22;;;;;;;12.13;3.65;;;;;;;6.88;100.00;101296.16;5247483;28;20111;-85
2021/05/26 01:52:54;;;;;;;15.57;3.88;;;;;;;6.88;100.00;101297.00;5249011;28;20033;-85
2021/05/26 01:55:25;;;;;;;83.97;6.47;;;;;;;6.86;100.00;101290.09;5248694;28;20024;-85
2021/05/26 01:57:56;;;;;;;15.18;3.55;;;;;;;6.87;100.00;101281.94;5248614;28;20086;-85
2021/05/26 02:00:27;;;;;;;10.20;2.95;;;;;;;6.86;100.00;101293.59;5248416;28;20040;-85
2021/05/26 02:02:58;;;;;;;6.93;2.45;;;;;;;6.87;100.00;101289.94;5248278;28;20039;-85
2021/05/26 02:05:29;;;;;;;13.88;3.17;;;;;;;6.85;100.00;101285.75;5248267;28;20021;-85
2021/05/26 02:08:01;;;;;;;6.75;2.20;;;;;;;6.83;100.00;101280.56;5247957;28;20024;-85
2021/05/26 02:13:21;;;;;;;9.57;2.05;;;;;;;6.87;100.00;101283.78;5247513;28;20476;-85
2021/05/26 02:15:51;;;;;;;8.65;2.28;;;;;;;6.91;100.00;101277.22;5248238;28;20040;-85
2021/05/26 02:18:22;;;;;;;7.63;2.08;;;;;;;6.98;100.00;101284.56;5247469;28;20108;-85
2021/05/26 02:20:52;;;;;;;19.52;3.83;;;;;;;7.06;100.00;101278.56;5247578;28;20052;-85
2021/05/26 02:23:23;;;;;;;8.80;2.28;;;;;;;7.14;100.00;101281.41;5247703;28;20460;-85
2021/05/26 02:25:53;;;;;;;9.18;2.47;;;;;;;7.19;100.00;101275.69;5246870;28;20447;-85
2021/05/26 02:28:24;;;;;;;6.25;1.77;;;;;;;7.22;100.00;101275.38;5247448;28;20033;-86
2021/05/26 02:30:54;;;;;;;269.65;14.60;;;;;;;7.30;100.00;101275.56;5246966;28;20032;-85
2021/05/26 02:33:25;;;;;;;9.13;1.92;;;;;;;7.35;100.00;101276.00;5247445;28;20059;-85
2021/05/26 02:35:55;;;;;;;5.93;1.77;;;;;;;7.37;100.00;101270.53;5246985;28;20446;-86
2021/05/26 02:38:26;;;;;;;3.75;1.83;;;;;;;7.45;100.00;101260.88;5247152;28;20032;-85
2021/05/26 02:40:56;;;;;;;2.50;1.35;;;;;;;7.49;100.00;101262.31;5246527;28;20033;-86
2021/05/26 02:43:27;;;;;;;6.28;1.40;;;;;;;7.49;100.00;101256.13;5246918;28;20111;-86
2021/05/26 02:45:57;;;;;;;3.08;1.48;;;;;;;7.49;100.00;101250.78;5246636;28;20021;-85
2021/05/26 02:48:28;;;;;;;5.32;1.60;;;;;;;7.52;100.00;101246.00;5246750;28;20029;-85
2021/05/26 02:50:58;;;;;;;4.40;1.67;;;;;;;7.51;100.00;101249.66;5246754;28;20386;-86
2021/05/26 02:53:28;;;;;;;7.75;1.98;;;;;;;7.58;100.00;101238.41;5247187;28;20027;-85
2021/05/26 02:55:59;;;;;;;4.55;1.70;;;;;;;7.53;100.00;101238.84;5246437;28;20063;-86
2021/05/26 02:58:29;;;;;;;5.55;1.58;;;;;;;7.55;100.00;101239.53;5245314;28;20033;-84
2021/05/26 03:01:00;;;;;;;6.32;1.65;;;;;;;7.59;100.00;101237.44;5246508;28;20025;-84
2021/05/26 03:03:30;;;;;;;8.07;1.70;;;;;;;7.59;100.00;101234.78;5246604;28;20104;-84
2021/05/26 03:06:01;;;;;;;9.15;1.50;;;;;;;7.59;100.00;101237.44;5246646;28;20025;-84
2021/05/26 03:08:32;;;;;;;5.38;1.50;;;;;;;7.55;100.00;101241.38;5233130;28;20028;-85
2021/05/26 03:11:02;;;;;;;5.18;1.52;;;;;;;7.47;100.00;101242.88;5247423;28;20084;-85
2021/05/26 03:13:33;;;;;;;6.30;2.05;;;;;;;7.49;100.00;101229.41;5250709;28;20036;-84
2021/05/26 03:16:08;;;;;;;4.35;1.70;;;;;;;7.46;100.00;101227.00;5250966;28;20536;-85
2021/05/26 03:18:40;;;;;;;4.97;1.70;;;;;;;7.43;100.00;101230.81;5255596;28;20028;-85
2021/05/26 03:21:11;;;;;;;10.40;1.83;;;;;;;7.40;100.00;101228.41;5251724;28;20084;-84
2021/05/26 03:23:42;;;;;;;8.68;1.92;;;;;;;7.36;100.00;101232.31;5252254;28;20491;-85
2021/05/26 03:26:14;;;;;;;4.75;1.70;;;;;;;7.33;100.00;101224.59;5266957;28;20028;-85
2021/05/26 03:28:44;;;;;;;8.52;2.20;;;;;;;7.30;100.00;101224.88;5251943;28;20610;-85
2021/05/26 03:31:15;;;;;;;5.22;2.03;;;;;;;7.24;100.00;101215.59;5251338;28;20107;-85
2021/05/26 03:33:45;;;;;;;6.97;2.20;;;;;;;7.24;100.00;101228.09;5251937;28;20028;-85
2021/05/26 03:36:16;;;;;;;9.70;2.40;;;;;;;7.20;100.00;101230.16;5251306;28;20028;-85
2021/05/26 03:38:46;;;;;;;8.32;2.72;;;;;;;7.21;100.00;101225.69;5251197;28;20080;-85
2021/05/26 03:41:17;;;;;;;8.57;2.40;;;;;;;7.20;100.00;101221.31;5249915;28;20028;-85
2021/05/26 03:43:47;;;;;;;8.25;2.72;;;;;;;7.17;100.00;101217.09;5251670;28;20031;-85
2021/05/26 03:46:18;;;;;;;8.45;2.20;;;;;;;7.18;100.00;101225.97;5251298;28;20024;-85
2021/05/26 03:48:48;;;;;;;7.97;2.13;;;;;;;7.16;100.00;101215.41;5251628;28;20112;-85
2021/05/26 03:51:19;;;;;;;10.73;2.58;;;;;;;7.17;100.00;101211.75;5240071;28;20028;-85
2021/05/26 03:53:49;;;;;;;12.75;3.53;;;;;;;7.10;100.00;101212.44;5248291;28;20555;-85
2021/05/26 03:56:21;;;;;;;7.25;2.55;;;;;;;7.11;100.00;101214.13;5251388;28;20551;-85
2021/05/26 03:58:51;;;;;;;10.65;2.90;;;;;;;7.09;100.00;101206.25;5250942;28;20372;-85
2021/05/26 04:01:22;;;;;;;8.25;2.75;;;;;;;7.05;100.00;101206.66;5266583;28;20115;-85
2021/05/26 04:03:52;;;;;;;11.63;2.42;;;;;;;7.01;100.00;101208.75;5251052;28;20028;-84
2021/05/26 04:06:23;;;;;;;7.07;2.78;;;;;;;6.96;100.00;101210.97;5251432;28;20036;-85
2021/05/26 04:08:53;;;;;;;14.40;3.08;;;;;;;6.92;100.00;101209.53;5249258;28;20024;-84
2021/05/26 04:11:24;;;;;;;11.07;2.95;;;;;;;6.90;100.00;101200.84;5248147;28;20095;-85
2021/05/26 04:13:55;;;;;;;10.15;3.67;;;;;;;6.93;100.00;101201.44;5247570;28;20021;-85
2021/05/26 04:16:25;;;;;;;10.50;2.95;;;;;;;6.91;100.00;101199.84;5247432;28;20024;-85
2021/05/26 04:18:55;;;;;;;6.22;2.65;;;;;;;6.93;100.00;101201.44;5248106;28;20036;-84
2021/05/26 04:21:26;;;;;;;6.13;2.50;;;;;;;6.98;100.00;101199.22;5247320;28;20020;-85
2021/05/26 04:23:57;;;;;;;7.95;2.47;;;;;;;6.99;100.00;101195.56;5247638;28;20024;-84
2021/05/26 04:26:28;;;;;;;12.32;2.67;;;;;;;6.98;100.00;101188.53;5247193;28;20063;-84
2021/05/26 04:28:58;;;;;;;9.13;2.72;;;;;;;6.99;100.00;101190.22;5247492;28;20348;-85
2021/05/26 04:31:29;;;;;;;11.02;2.80;;;;;;;7.07;100.00;101180.69;5247174;28;20547;-85
2021/05/26 04:33:59;;;;;;;14.15;3.00;;;;;;;7.12;100.00;101192.63;5247323;28;20426;-84
2021/05/26 04:36:29;;;;;;;9.05;4.63;;;;;;;7.16;100.00;101186.06;5247142;28;20058;-85
2021/05/26 04:39:00;;;;;;;18.63;3.95;;;;;;;7.21;100.00;101182.97;5246117;28;20081;-85
2021/05/26 04:41:31;;;;;;;10.27;3.40;;;;;;;7.31;100.00;101180.34;5247452;28;20024;-84
2021/05/26 04:44:01;;;;;;;11.05;3.58;;;;;;;7.33;100.00;101178.34;5246841;28;20120;-84
2021/05/26 04:46:32;;;;;;;7.22;2.50;;;;;;;7.44;100.00;101189.78;5247185;28;20063;-84
2021/05/26 04:49:03;;;;;;;10.27;2.85;;;;;;;7.51;100.00;101182.91;5245934;28;20501;-84
2021/05/26 04:51:33;;;;;;;9.15;3.47;;;;;;;7.68;100.00;101180.53;5246723;28;20028;-84
2021/05/26 04:54:04;;;;;;;7.20;3.05;;;;;;;7.90;100.00;101182.94;5234673;28;20032;-84
2021/05/26 04:56:35;;;;;;;9.07;3.40;;;;;;;8.12;100.00;101187.13;5246657;28;20506;-85
2021/05/26 04:59:05;;;;;;;11.75;3.58;;;;;;;8.30;100.00;101179.25;5239027;28;20039;-84
2021/05/26 05:01:36;;;;;;;13.73;3.22;;;;;;;8.51;100.00;101179.09;5241026;28;20484;-85
2021/05/26 05:04:06;;;;;;;7.88;3.28;;;;;;;8.66;100.00;101174.13;5246180;28;20543;-85
2021/05/26 05:06:37;;;;;;;6.90;2.78;;;;;;;8.69;100.00;101169.34;5246554;28;20363;-85
2021/05/26 05:09:10;;;;;;;8.82;3.00;;;;;;;8.58;100.00;101174.84;5246134;28;20076;-85
2021/05/26 05:11:40;;;;;;;12.00;3.90;;;;;;;8.79;100.00;101171.97;5246530;28;20363;-85
2021/05/26 05:14:11;;;;;;;10.40;2.88;;;;;;;8.69;100.00;101171.16;5246603;28;20035;-84
2021/05/26 05:16:41;;;;;;;10.75;3.80;;;;;;;8.83;100.00;101170.66;5245662;28;20047;-86
2021/05/26 05:19:12;;;;;;;10.95;3.55;;;;;;;8.93;100.00;101166.13;5245997;28;20020;-85
2021/05/26 05:21:42;;;;;;;9.32;2.95;;;;;;;8.98;100.00;101168.34;5245817;28;20070;-84
2021/05/26 05:24:13;;;;;;;8.07;3.08;;;;;;;8.94;100.00;101165.16;5232722;28;20473;-84
2021/05/26 05:26:43;;;;;;;8.80;3.10;;;;;;;9.04;100.00;101171.31;5249287;28;20028;-85
2021/05/26 05:29:14;;;;;;;11.35;3.63;;;;;;;9.18;100.00;101174.44;5248735;28;20096;-85
2021/05/26 05:31:44;;;;;;;8.55;3.67;;;;;;;9.15;100.00;101178.28;5249805;28;20110;-85
2021/05/26 05:34:14;;;;;;;10.55;3.92;;;;;;;9.24;100.00;101174.72;5249644;28;20035;-85
2021/05/26 05:36:45;;;;;;;8.65;3.60;;;;;;;9.21;100.00;101184.88;5248934;28;20036;-85
2021/05/26 05:39:18;;;;;;;10.55;3.83;;;;;;;9.20;100.00;101177.84;5249048;28;20115;-86
2021/05/26 05:41:48;;;;;;;9.45;3.10;;;;;;;9.47;100.00;101176.97;5249038;28;20072;-85
2021/05/26 05:44:20;;;;;;;11.38;3.13;;;;;;;10.80;100.00;101171.53;5248772;28;20087;-85
2021/05/26 05:46:50;;;;;;;4.93;2.50;;;;;;;12.31;100.00;101175.94;5243911;28;20040;-85
2021/05/26 05:49:24;;;;;;;5.07;2.20;;;;;;;13.14;100.00;101171.00;5248029;28;20020;-86
2021/05/26 05:51:55;;;;;;;5.72;2.05;;;;;;;13.00;100.00;101181.66;5247762;28;20047;-86
2021/05/26 05:54:25;;;;;;;7.43;2.70;;;;;;;13.21;100.00;101181.94;5248405;28;20017;-85
2021/05/26 05:56:56;;;;;;;8.68;2.70;;;;;;;13.15;100.00;101188.84;5248547;28;20498;-86
2021/05/26 05:59:31;;;;;;;9.13;2.80;;;;;;;13.18;100.00;101176.88;5247997;28;20454;-85
2021/05/26 06:02:02;;;;;;;;;;;;;;;13.41;100.00;101176.97;5248762;28;20239;-85
2021/05/26 06:04:32;;;;;;;5.55;1.90;;;;;;;13.08;100.00;101179.78;5247630;28;19909;-86
2021/05/26 06:07:02;;;;;;;6.43;2.83;;;;;;;13.81;100.00;101165.09;5247737;28;20025;-85
2021/05/26 06:09:38;;;;;;;6.13;2.67;;;;;;;14.25;100.00;101167.91;5247703;28;20113;-85
2021/05/26 06:12:09;;;;;;;8.55;2.42;;;;;;;14.16;100.00;101166.34;5247749;28;20043;-86
2021/05/26 06:14:39;;;;;;;6.30;2.00;;;;;;;13.23;100.00;101171.00;5247633;28;20391;-85
2021/05/26 06:17:10;;;;;;;8.32;2.40;;;;;;;12.96;100.00;101170.41;5247301;28;20037;-85
2021/05/26 06:19:45;;;;;;;8.02;2.25;;;;;;;13.61;100.00;101170.13;5247120;28;20027;-87
2021/05/26 06:22:15;;;;;;;8.10;2.08;;;;;;;14.00;100.00;101167.28;5247263;28;20415;-85
2021/05/26 06:24:46;;;;;;;5.47;2.42;;;;;;;13.74;100.00;101164.13;5234041;28;20039;-85
2021/05/26 06:27:16;;;;;;;6.10;2.33;;;;;;;13.65;100.00;101166.03;5247047;28;20439;-85
2021/05/26 06:29:51;;;;;;;7.38;2.85;;;;;;;13.21;100.00;101174.72;5246810;28;20029;-87
2021/05/26 06:32:22;;;;;;;5.43;2.70;;;;;;;12.79;100.00;101177.69;5263233;28;20388;-85
2021/05/26 06:34:52;;;;;;;6.70;2.75;;;;;;;12.36;100.00;101173.56;5247438;28;20021;-86
2021/05/26 06:37:23;;;;;;;9.38;3.75;;;;;;;12.11;100.00;101178.97;5245879;28;20020;-86
2021/05/26 06:39:58;;;;;;;10.38;4.03;;;;;;;11.56;100.00;101181.41;5248082;28;20030;-86
2021/05/26 06:42:28;;;;;;;7.00;3.20;;;;;;;11.44;100.00;101175.47;5249329;28;20281;-86
2021/05/26 06:44:59;;;;;;;9.35;3.88;;;;;;;11.22;100.00;101187.66;5247572;28;20020;-85
2021/05/26 06:47:29;;;;;;;9.77;4.22;;;;;;;11.19;100.00;101174.53;5247622;28;20048;-85
2021/05/26 06:50:05;;;;;;;13.63;4.15;;;;;;;11.39;100.00;101177.81;5247193;28;20082;-85
2021/05/26 06:52:35;;;;;;;10.57;3.50;;;;;;;11.51;100.00;101181.88;5247272;28;20025;-86
2021/05/26 06:55:07;;;;;;;9.57;3.97;;;;;;;11.84;100.00;101168.53;5247288;28;20388;-85
2021/05/26 06:57:38;;;;;;;11.30;4.18;;;;;;;12.31;100.00;101174.09;5247786;28;20028;-86
2021/05/26 07:00:12;;;;;;;7.50;3.08;;;;;;;12.60;100.00;101173.53;5248000;28;20790;-85
2021/05/26 07:02:43;;;;;;;5.57;2.78;;;;;;;12.54;100.00;101176.91;5246775;28;20029;-85
2021/05/26 07:05:13;;;;;;;6.65;3.30;;;;;;;12.18;100.00;101168.38;5246315;28;20027;-85
2021/05/26 07:07:44;;;;;;;8.60;3.75;;;;;;;12.07;100.00;101171.41;5246350;28;20073;-86
2021/05/26 07:10:19;;;;;;;10.57;3.28;;;;;;;11.93;100.00;101172.91;5246048;28;20146;-86
2021/05/26 07:12:50;;;;;;;;;;;;;;;11.65;100.00;101175.03;5247140;28;20468;-86
2021/05/26 07:15:20;;;;;;;6.30;3.40;;;;;;;11.46;100.00;101173.47;5246405;28;20006;-85
2021/05/26 07:17:54;;;;;;;7.85;3.47;;;;;;;11.34;100.00;101169.41;5246553;28;20154;-86
2021/05/26 07:20:25;;;;;;;8.10;2.50;;;;;;;11.19;100.00;101173.72;5246326;28;20028;-86
2021/05/26 07:22:56;;;;;;;5.55;2.95;;;;;;;11.34;100.00;101170.22;5246330;28;20028;-86
2021/05/26 07:25:27;;;;;;;8.43;2.95;;;;;;;11.38;100.00;101165.38;5246698;28;20063;-86
2021/05/26 07:27:57;;;;;;;7.57;3.55;;;;;;;11.59;100.00;101163.06;5246537;28;20031;-86
2021/05/26 07:30:32;;;;;;;10.43;5.22;;;;;;;11.95;100.00;101152.09;5246105;28;20550;-88
2021/05/26 07:33:03;;;;;;;10.73;4.03;;;;;;;11.82;100.00;101159.78;5246250;28;20040;-86
2021/05/26 07:35:33;;;;;;;12.05;4.88;;;;;;;12.05;100.00;101154.56;5246556;28;20021;-85
2021/05/26 07:38:04;;;;;;;21.83;15.25;;;;;;;12.27;100.00;101155.75;5246793;28;20020;-87
2021/05/26 07:40:39;;;;;;;36.28;27.50;;;;;;;12.42;100.00;101154.91;5248207;28;20391;-86
2021/05/26 07:43:09;;;;;;;5.28;2.95;;;;;;;12.77;100.00;101166.25;5248809;28;20025;-86
2021/05/26 07:45:40;;;;;;;7.03;2.80;;;;;;;12.79;100.00;101163.38;5248745;28;20448;-85
2021/05/26 07:48:10;;;;;;;6.97;2.67;;;;;;;12.58;100.00;101167.47;5249533;28;20020;-86
2021/05/26 07:50:46;;;;;;;7.15;2.50;;;;;;;12.56;100.00;101174.06;5261593;28;20533;-85
2021/05/26 07:53:17;;;;;;;6.97;2.58;;;;;;;12.33;100.00;101161.28;5236377;28;20032;-85
2021/05/26 07:55:47;;;;;;;9.82;3.15;;;;;;;12.10;100.00;101166.53;5249283;28;20086;-86
2021/05/26 07:58:18;;;;;;;5.15;2.38;;;;;;;12.14;100.00;101158.94;5248738;28;20070;-86
2021/05/26 08:00:53;;;;;;;6.63;2.88;;;;;;;12.45;100.00;101161.81;5248317;28;20025;-87
2021/05/26 08:03:23;;;;;;;3.47;1.60;;;;;;;12.58;100.00;101164.78;5248351;28;20032;-86
2021/05/26 08:05:55;;;;;;;5.60;1.70;;;;;;;12.72;100.00;101162.41;5248387;28;20080;-85
2021/05/26 08:08:26;;;;;;;6.05;2.30;;;;;;;12.89;100.00;101167.53;5246306;28;20025;-86
2021/05/26 08:11:00;;;;;;;5.05;2.10;;;;;;;13.24;100.00;101170.81;5248059;28;20091;-85
2021/05/26 08:13:32;;;;;;;6.25;2.25;;;;;;;13.57;100.00;101176.03;5248166;28;20445;-87
2021/05/26 08:16:02;;;;;;;7.10;2.00;;;;;;;13.69;100.00;101180.00;5248155;28;20020;-85
2021/05/26 08:18:33;;;;;;;4.68;1.95;;;;;;;13.36;100.00;101169.41;5247697;28;20377;-86
2021/05/26 08:21:08;;;;;;;7.38;2.40;;;;;;;13.33;100.00;101167.06;5246641;28;20541;-86
2021/05/26 08:23:38;;;;;;;4.10;2.00;;;;;;;13.12;100.00;101167.63;5246574;28;20024;-85
2021/05/26 08:26:14;;;;;;;7.00;2.33;;;;;;;12.82;100.00;101165.75;5246856;28;20025;-86
2021/05/26 08:28:45;;;;;;;5.05;2.20;;;;;;;12.99;100.00;101167.34;5247174;28;20029;-85
2021/05/26 08:31:16;;;;;;;9.32;1.95;;;;;;;13.54;100.00;101171.81;5248632;28;20024;-86
2021/05/26 08:33:47;;;;;;;5.97;2.03;;;;;;;14.13;100.00;101155.06;5246267;28;20387;-85
2021/05/26 08:36:18;;;;;;;6.13;2.20;;;;;;;14.49;100.00;101156.09;5232857;28;20533;-86
2021/05/26 08:38:48;;;;;;;4.38;2.05;;;;;;;15.15;100.00;101155.31;5245766;28;20266;-85
2021/05/26 08:41:21;;;;;;;3.92;1.77;;;;;;;15.14;100.00;101151.78;5245607;28;20103;-86
2021/05/26 08:43:51;;;;;;;7.38;1.70;;;;;;;15.16;100.00;101154.28;5245746;28;20025;-86
2021/05/26 08:46:22;;;;;;;5.03;1.70;;;;;;;15.15;100.00;101150.75;5245563;28;20396;-86
2021/05/26 08:48:53;;;;;;;3.22;2.03;;;;;;;14.91;100.00;101160.03;5245097;28;20107;-86
2021/05/26 08:51:24;;;;;;;5.32;1.85;;;;;;;14.48;100.00;101156.28;5245175;28;20387;-86
2021/05/26 08:53:55;;;;;;;5.55;2.33;;;;;;;14.27;100.00;101158.81;5245101;28;20039;-86
2021/05/26 08:56:25;;;;;;;5.45;2.13;;;;;;;14.53;100.00;101153.03;5245127;28;20028;-85
2021/05/26 08:58:56;;;;;;;3.40;1.60;;;;;;;14.75;100.00;101152.94;5245094;28;20111;-86
2021/05/26 09:01:26;;;;;;;5.07;2.03;;;;;;;14.71;100.00;101148.13;5247727;28;20024;-86
2021/05/26 09:04:27;;;;;;;3.83;1.98;;;;;;;14.94;100.00;101148.00;5247708;28;20067;-85
2021/05/26 09:07:18;;;;;;;5.97;1.85;;;;;;;14.93;100.00;101157.13;5264586;28;20043;-86
2021/05/26 09:09:54;;;;;;;6.00;2.15;;;;;;;14.82;100.00;101144.94;5248249;28;20037;-85
2021/05/26 09:12:27;;;;;;;4.97;2.40;;;;;;;15.10;100.00;101144.25;5248915;28;20016;-85
2021/05/26 09:15:03;;;;;;;6.75;2.15;;;;;;;15.15;100.00;101139.94;5248811;28;20113;-86
2021/05/26 09:17:34;;;;;;;6.95;2.25;;;;;;;15.02;100.00;101148.75;5248402;28;20032;-86
2021/05/26 09:20:13;;;;;;;4.10;2.30;;;;;;;14.59;100.00;101146.88;5248473;28;20024;-86
2021/05/26 09:22:59;;;;;;;5.45;2.88;;;;;;;14.19;100.00;101148.94;5245573;28;20055;-86
2021/05/26 09:25:30;;;;;;;;;;;;;;;14.08;100.00;101152.06;5240805;28;20032;-85
2021/05/26 09:28:31;;;;;;;6.25;3.00;;;;;;;13.88;100.00;101147.16;5248391;28;20295;-86
2021/05/26 09:31:05;;;;;;;7.82;3.67;;;;;;;13.71;100.00;101141.06;5248055;28;20048;-85
2021/05/26 09:33:39;;;;;;;9.25;3.53;;;;;;;13.88;100.00;101146.31;5248383;28;20024;-85
2021/05/26 09:36:20;;;;;;;11.63;3.08;;;;;;;14.38;100.00;101153.81;5248144;28;20059;-85
2021/05/26 09:38:56;;;;;;;9.73;4.13;;;;;;;14.80;100.00;101151.53;5248182;28;20016;-86
2021/05/26 09:41:36;;;;;;;9.18;4.55;;;;;;;15.23;100.00;101147.13;5247937;28;20032;-86
2021/05/26 09:44:10;;;;;;;7.80;4.82;;;;;;;15.26;100.00;101136.78;5248144;28;20488;-86
2021/05/26 09:46:43;;;;;;;9.05;5.28;;;;;;;15.25;100.00;101140.50;5248152;28;20078;-86
2021/05/26 09:49:16;;;;;;;9.70;5.50;;;;;;;15.41;100.00;101141.28;5248725;28;20021;-85
2021/05/26 09:51:50;;;;;;;10.57;5.53;;;;;;;15.28;100.00;101134.72;5248073;28;20052;-85
2021/05/26 09:54:23;;;;;;;11.43;5.22;;;;;;;15.22;100.00;101132.78;5248080;28;20024;-86
2021/05/26 09:57:05;;;;;;;10.10;5.85;;;;;;;15.19;100.00;101143.13;5247951;28;20043;-85
2021/05/26 09:59:36;;;;;;;11.05;5.85;;;;;;;15.35;100.00;101140.19;5247761;28;20035;-85
2021/05/26 10:02:08;;;;;;;8.80;5.30;;;;;;;15.74;100.00;101134.41;5247413;28;20033;-85
2021/05/26 10:04:42;;;;;;;11.43;6.07;;;;;;;15.67;100.00;101138.09;5247926;28;20025;-85
2021/05/26 10:07:13;;;;;;;13.50;5.30;;;;;;;15.61;100.00;101144.22;5247632;28;20029;-86
2021/05/26 10:09:44;;;;;;;9.55;4.97;;;;;;;15.03;100.00;101141.47;5247620;28;20036;-85
2021/05/26 10:12:15;;;;;;;9.88;5.55;;;;;;;14.67;100.00;101142.25;5248235;28;20020;-86
2021/05/26 10:14:46;;;;;;;13.88;6.00;;;;;;;14.97;100.00;101139.53;5247416;28;20377;-85
2021/05/26 10:17:23;;;;;;;13.20;6.40;;;;;;;14.98;100.00;101138.50;5247479;28;20032;-85
2021/05/26 10:19:54;;;;;;;13.07;6.20;;;;;;;15.06;100.00;101133.00;5247385;28;20025;-86
2021/05/26 10:22:24;;;;;;;12.85;6.22;;;;;;;15.19;100.00;101143.13;5247431;28;20040;-85
2021/05/26 10:24:55;;;;;;;11.65;6.18;;;;;;;15.57;100.00;101143.78;5247094;28;20104;-85
2021/05/26 10:27:32;;;;;;;12.82;6.60;;;;;;;15.74;100.00;101139.81;5247304;28;20020;-86
2021/05/26 10:30:06;;;;;;;12.70;5.40;;;;;;;15.68;100.00;101151.41;5246987;28;20379;-86
2021/05/26 10:32:59;;;;;;;11.52;6.03;;;;;;;15.92;100.00;101155.59;5247067;28;20040;-85
2021/05/26 10:35:51;;;;;;;12.60;5.72;;;;;;;16.17;100.00;101149.78;5246694;28;20032;-87
2021/05/26 10:38:22;;;;;;;8.55;5.32;;;;;;;16.29;100.00;101142.78;5247295;28;20311;-87
2021/05/26 10:40:56;;;;;;;9.90;5.78;;;;;;;16.51;100.00;101136.28;5246877;28;20028;-86
2021/05/26 10:43:27;;;;;;;13.85;6.38;;;;;;;16.71;100.00;101131.00;5246891;28;20024;-87
2021/05/26 10:45:59;;;;;;;10.55;5.28;;;;;;;17.19;100.00;101147.31;5247016;28;20052;-86
2021/05/26 10:48:39;;;;;;;7.95;4.75;;;;;;;17.27;90.11;101144.44;5247022;28;20036;-89
2021/05/26 10:51:12;;;;;;;9.18;5.38;;;;;;;17.69;100.00;101144.34;5246322;28;20074;-86
2021/05/26 10:53:43;;;;;;;10.63;5.35;;;;;;;17.87;85.25;101141.88;5246555;28;20059;-86
2021/05/26 10:56:34;;;;;;;9.55;5.03;;;;;;;17.08;76.34;101142.47;5246496;28;20510;-87
2021/05/26 10:59:10;;;;;;;13.18;4.38;;;;;;;16.31;79.13;101146.13;5246595;28;20083;-87
2021/05/26 11:02:09;;;;;;;8.82;5.47;;;;;;;15.89;100.00;101155.16;5246451;28;20511;-85
2021/05/26 11:04:40;;;;;;;8.45;4.70;;;;;;;15.51;95.80;101160.75;5246164;28;20395;-86
2021/05/26 11:07:21;;;;;;;10.05;4.97;;;;;;;15.06;97.32;101167.25;5246486;28;20418;-86
2021/05/26 11:10:05;;;;;;;9.55;4.55;;;;;;;14.89;100.00;101172.88;5246390;28;20276;-86
2021/05/26 11:12:55;;;;;;;8.60;4.07;;;;;;;14.40;100.00;101164.41;5246366;28;20024;-86
2021/05/26 11:15:42;;;;;;;8.82;4.35;;;;;;;14.28;100.00;101169.41;5234486;28;20042;-86
2021/05/26 11:18:30;;;;;;;11.48;4.38;;;;;;;14.23;100.00;101175.38;5245997;28;20039;-86
2021/05/26 11:21:00;;;;;;;9.13;3.45;;;;;;;14.08;100.00;101187.13;5245516;28;20035;-86
2021/05/26 11:23:31;;;;;;;6.95;3.67;;;;;;;14.06;100.00;101173.84;5245689;28;20024;-86
2021/05/26 11:26:02;;;;;;;7.13;4.00;;;;;;;14.28;100.00;101169.41;5246169;28;20085;-86
2021/05/26 11:28:35;;;;;;;7.55;3.65;;;;;;;14.78;100.00;101178.75;5246312;28;20025;-88
2021/05/26 11:31:08;;;;;;;10.95;3.95;;;;;;;14.89;100.00;101172.88;5245924;28;20016;-86
2021/05/26 11:33:54;;;;;;;9.80;3.30;;;;;;;14.99;98.69;101178.00;5245671;28;20380;-86
2021/05/26 11:36:44;;;;;;;10.82;5.43;;;;;;;15.06;97.42;101172.66;5246160;28;20285;-86
2021/05/26 11:39:27;;;;;;;8.63;3.53;;;;;;;14.88;100.00;101176.59;5245940;28;20607;-86
2021/05/26 11:42:18;;;;;;;7.15;3.42;;;;;;;15.09;100.00;101178.53;5245881;28;20021;-86
2021/05/26 11:45:00;;;;;;;7.45;4.53;;;;;;;15.47;100.00;101187.34;5235546;28;20081;-86
2021/05/26 11:47:43;;;;;;;10.93;3.17;;;;;;;15.74;100.00;101177.69;5245611;28;20021;-86